createdAt,value
2019-05-10T00:01:52.521Z,12.60
2019-05-10T00:04:38.998Z,12.50
2019-05-10T00:07:25.447Z,12.50
2019-05-10T00:09:55.349Z,12.40
2019-05-10T00:12:32.771Z,12.30
2019-05-10T00:15:01.480Z,12.30
2019-05-10T00:17:30.151Z,12.30
2019-05-10T00:19:58.739Z,12.30
2019-05-10T00:22:27.555Z,12.20
2019-05-10T00:25:03.693Z,12.20
2019-05-10T00:27:26.388Z,12.10
2019-05-10T00:29:55.050Z,12.10
2019-05-10T00:32:23.635Z,12.00
2019-05-10T00:34:52.285Z,12.00
2019-05-10T00:37:20.858Z,12.00
2019-05-10T00:39:49.600Z,12.00
2019-05-10T00:42:18.229Z,11.90
2019-05-10T00:44:46.803Z,11.90
2019-05-10T00:47:15.389Z,11.90
2019-05-10T00:49:44.069Z,11.90
2019-05-10T00:52:12.814Z,11.80
2019-05-10T00:54:41.497Z,11.90
2019-05-10T00:57:10.055Z,11.90
2019-05-10T00:59:38.623Z,11.90
2019-05-10T01:02:08.191Z,11.90
2019-05-10T01:04:36.836Z,11.90
2019-05-10T01:07:05.435Z,11.80
2019-05-10T01:09:34.384Z,11.80
2019-05-10T01:12:02.997Z,11.80
2019-05-10T01:14:31.583Z,11.80
2019-05-10T01:17:00.163Z,11.80
2019-05-10T01:19:28.913Z,11.80
2019-05-10T01:21:57.563Z,11.80
2019-05-10T01:24:26.126Z,11.80
2019-05-10T01:26:54.758Z,11.80
2019-05-10T01:29:23.326Z,11.80
2019-05-10T01:31:52.946Z,11.80
2019-05-10T01:34:21.524Z,11.80
2019-05-10T01:36:50.110Z,11.80
2019-05-10T01:39:19.715Z,11.70
2019-05-10T01:41:48.279Z,11.70
2019-05-10T01:44:18.867Z,11.70
2019-05-10T01:46:47.381Z,11.70
2019-05-10T01:49:15.991Z,11.70
2019-05-10T01:51:45.870Z,11.70
2019-05-10T01:54:14.517Z,11.70
2019-05-10T01:56:43.157Z,11.60
2019-05-10T01:59:11.744Z,11.60
2019-05-10T02:01:41.222Z,11.60
2019-05-10T02:04:09.855Z,11.60
2019-05-10T02:06:38.439Z,11.60
2019-05-10T02:09:09.039Z,11.60
2019-05-10T02:11:37.679Z,11.60
2019-05-10T02:14:06.320Z,11.60
2019-05-10T02:16:34.908Z,11.60
2019-05-10T02:19:04.511Z,11.60
2019-05-10T02:21:33.084Z,11.50
2019-05-10T02:24:01.725Z,11.60
2019-05-10T02:26:30.344Z,11.60
2019-05-10T02:28:58.934Z,11.50
2019-05-10T02:31:27.980Z,11.50
2019-05-10T02:33:56.565Z,11.50
2019-05-10T02:36:25.277Z,11.50
2019-05-10T02:38:53.837Z,11.50
2019-05-10T02:41:22.410Z,11.50
2019-05-10T02:43:51.047Z,11.60
2019-05-10T02:46:19.705Z,11.60
2019-05-10T02:48:48.321Z,11.60
2019-05-10T02:51:16.938Z,11.50
2019-05-10T02:53:45.514Z,11.50
2019-05-10T02:56:29.835Z,11.50
2019-05-10T02:58:46.599Z,11.40
2019-05-10T03:01:17.382Z,11.40
2019-05-10T03:03:47.736Z,11.40
2019-05-10T03:06:19.537Z,11.40
2019-05-10T03:08:50.747Z,11.40
2019-05-10T03:11:19.652Z,11.30
2019-05-10T03:13:50.990Z,11.40
2019-05-10T03:16:21.842Z,11.30
2019-05-10T03:18:52.942Z,11.40
2019-05-10T03:21:23.962Z,11.40
2019-05-10T03:23:52.761Z,11.40
2019-05-10T03:26:21.454Z,11.40
2019-05-10T03:28:50.066Z,11.50
2019-05-10T03:31:19.100Z,11.50
2019-05-10T03:33:54.934Z,11.50
2019-05-10T03:36:18.043Z,11.50
2019-05-10T03:38:46.804Z,11.50
2019-05-10T03:41:15.447Z,11.50
2019-05-10T03:43:44.256Z,11.50
2019-05-10T03:46:12.876Z,11.50
2019-05-10T03:48:41.440Z,11.50
2019-05-10T03:51:10.018Z,11.60
2019-05-10T03:53:38.635Z,11.60
2019-05-10T03:56:07.216Z,11.60
2019-05-10T03:58:36.937Z,11.60
2019-05-10T04:01:05.523Z,11.60
2019-05-10T04:03:34.087Z,11.60
2019-05-10T04:06:02.655Z,11.60
2019-05-10T04:08:31.272Z,11.60
2019-05-10T04:10:59.869Z,11.60
2019-05-10T04:13:28.674Z,11.60
2019-05-10T04:15:57.276Z,11.60
2019-05-10T04:18:25.848Z,11.60
2019-05-10T04:20:54.523Z,11.70
2019-05-10T04:23:24.023Z,11.70
2019-05-10T04:25:52.585Z,11.80
2019-05-10T04:28:22.313Z,11.80
2019-05-10T04:30:50.961Z,11.80
2019-05-10T04:33:20.511Z,11.80
2019-05-10T04:35:49.040Z,11.80
2019-05-10T04:38:19.595Z,11.80
2019-05-10T04:40:49.499Z,11.80
2019-05-10T04:43:18.061Z,11.80
2019-05-10T04:45:46.674Z,11.90
2019-05-10T04:48:15.264Z,11.90
2019-05-10T04:50:49.372Z,12.00
2019-05-10T04:53:20.210Z,12.10
2019-05-10T04:55:48.805Z,12.10
2019-05-10T04:58:17.382Z,12.20
2019-05-10T05:00:46.003Z,12.30
2019-05-10T05:03:14.587Z,12.40
2019-05-10T05:05:43.667Z,12.50
2019-05-10T05:08:12.820Z,12.70
2019-05-10T05:10:41.411Z,12.80
2019-05-10T05:13:09.984Z,12.90
2019-05-10T05:15:38.731Z,12.90
2019-05-10T05:18:07.389Z,12.90
2019-05-10T05:20:36.075Z,12.90
2019-05-10T05:23:04.705Z,13.00
2019-05-10T05:25:35.307Z,13.10
2019-05-10T05:28:08.144Z,13.00
2019-05-10T05:30:38.473Z,13.00
2019-05-10T05:33:05.095Z,13.10
2019-05-10T05:35:33.673Z,13.20
2019-05-10T05:38:02.273Z,13.10
2019-05-10T05:40:30.918Z,13.10
2019-05-10T05:43:02.777Z,13.20
2019-05-10T05:45:33.947Z,13.20
2019-05-10T05:48:00.044Z,13.20
2019-05-10T05:50:28.709Z,13.20
2019-05-10T05:52:57.224Z,13.20
2019-05-10T05:55:30.746Z,13.20
2019-05-10T05:57:59.291Z,13.10
2019-05-10T06:00:26.428Z,13.20
2019-05-10T06:02:55.360Z,13.30
2019-05-10T06:05:33.501Z,13.50
2019-05-10T06:07:54.205Z,13.60
2019-05-10T06:10:22.848Z,13.70
2019-05-10T06:12:53.017Z,13.70
2019-05-10T06:15:23.214Z,13.90
2019-05-10T06:17:56.990Z,13.90
2019-05-10T06:20:22.185Z,14.00
2019-05-10T06:23:06.039Z,14.00
2019-05-10T06:25:38.126Z,14.00
2019-05-10T06:27:51.258Z,14.10
2019-05-10T06:30:20.014Z,14.20
2019-05-10T06:32:53.141Z,14.40
2019-05-10T06:35:19.451Z,14.30
2019-05-10T06:37:49.142Z,14.40
2019-05-10T06:40:33.476Z,14.40
2019-05-10T06:42:49.864Z,14.70
2019-05-10T06:45:18.478Z,15.10
2019-05-10T06:47:48.020Z,16.00
2019-05-10T06:50:17.633Z,16.80
2019-05-10T06:52:47.298Z,17.40
2019-05-10T06:55:16.024Z,17.80
2019-05-10T06:57:50.506Z,18.10
2019-05-10T07:00:18.612Z,18.10
2019-05-10T07:02:47.268Z,17.60
2019-05-10T07:05:15.985Z,17.40
2019-05-10T07:07:45.560Z,17.30
2019-05-10T07:10:19.199Z,17.10
2019-05-10T07:12:45.540Z,17.00
2019-05-10T07:15:15.412Z,16.90
2019-05-10T07:17:47.246Z,16.70
2019-05-10T07:20:14.636Z,16.40
2019-05-10T07:22:43.203Z,16.20
2019-05-10T07:25:11.841Z,16.10
2019-05-10T07:27:40.500Z,15.90
2019-05-10T07:30:09.621Z,15.80
2019-05-10T07:32:38.230Z,15.80
2019-05-10T07:35:07.782Z,15.70
2019-05-10T07:37:36.510Z,15.70
2019-05-10T07:40:07.840Z,15.60
2019-05-10T07:42:39.885Z,15.80
2019-05-10T07:45:07.396Z,15.80
2019-05-10T07:47:36.065Z,15.80
2019-05-10T07:50:09.944Z,15.80
2019-05-10T07:52:43.137Z,15.90
2019-05-10T07:55:10.644Z,16.00
2019-05-10T07:57:39.631Z,16.10
2019-05-10T08:00:09.235Z,16.00
2019-05-10T08:02:38.076Z,16.00
2019-05-10T08:05:11.027Z,16.10
2019-05-10T08:07:38.720Z,16.00
2019-05-10T08:10:08.926Z,16.00
2019-05-10T08:12:41.305Z,16.00
2019-05-10T08:15:08.767Z,15.90
2019-05-10T08:17:41.111Z,15.80
2019-05-10T08:20:14.595Z,15.60
2019-05-10T08:22:41.393Z,15.40
2019-05-10T08:25:09.425Z,15.10
2019-05-10T08:27:43.920Z,15.00
2019-05-10T08:30:22.702Z,14.90
2019-05-10T08:32:42.350Z,14.90
2019-05-10T08:35:16.825Z,15.00
2019-05-10T08:37:43.236Z,14.90
2019-05-10T08:40:12.890Z,15.00
2019-05-10T08:42:48.037Z,15.30
2019-05-10T08:45:12.650Z,15.50
2019-05-10T08:47:42.635Z,15.70
2019-05-10T08:50:26.338Z,15.70
2019-05-10T08:52:44.520Z,15.80
2019-05-10T08:55:13.355Z,15.80
2019-05-10T08:57:44.259Z,16.10
2019-05-10T09:00:13.175Z,16.40
2019-05-10T09:02:42.973Z,16.60
2019-05-10T09:05:12.423Z,16.70
2019-05-10T09:07:43.075Z,16.60
2019-05-10T09:10:12.848Z,16.50
2019-05-10T09:12:51.014Z,16.40
2019-05-10T09:15:13.943Z,16.30
2019-05-10T09:17:42.917Z,16.30
2019-05-10T09:20:20.681Z,16.20
2019-05-10T09:22:43.316Z,16.20
2019-05-10T09:25:12.911Z,16.20
2019-05-10T09:27:43.155Z,16.20
2019-05-10T09:30:18.399Z,16.30
2019-05-10T09:32:45.612Z,16.30
2019-05-10T09:35:14.470Z,16.30
2019-05-10T09:37:43.048Z,16.30
2019-05-10T09:40:13.205Z,16.30
2019-05-10T09:42:43.479Z,16.30
2019-05-10T09:45:13.093Z,16.40
2019-05-10T09:47:43.380Z,16.40
2019-05-10T09:50:12.811Z,16.40
2019-05-10T09:52:41.571Z,16.30
2019-05-10T09:55:14.694Z,16.20
2019-05-10T09:57:41.854Z,16.10
2019-05-10T10:00:12.176Z,16.00
2019-05-10T10:02:47.852Z,15.80
2019-05-10T10:05:12.383Z,15.80
2019-05-10T10:07:41.332Z,15.80
2019-05-10T10:10:12.732Z,15.90
2019-05-10T10:12:42.750Z,16.00
2019-05-10T10:15:18.809Z,16.00
2019-05-10T10:17:42.478Z,16.00
2019-05-10T10:20:11.388Z,16.10
2019-05-10T10:22:43.516Z,16.30
2019-05-10T10:25:10.348Z,16.40
2019-05-10T10:27:39.606Z,16.50
2019-05-10T10:30:14.994Z,16.70
2019-05-10T10:32:44.430Z,17.00
2019-05-10T10:35:13.222Z,17.20
2019-05-10T10:37:42.022Z,17.40
2019-05-10T10:40:10.717Z,17.50
2019-05-10T10:42:40.318Z,17.30
2019-05-10T10:45:10.559Z,17.10
2019-05-10T10:47:39.133Z,16.90
2019-05-10T10:50:13.208Z,16.70
2019-05-10T10:52:38.480Z,16.50
2019-05-10T10:55:11.074Z,16.30
2019-05-10T10:57:39.177Z,16.10
2019-05-10T11:00:10.045Z,16.00
2019-05-10T11:02:41.510Z,15.90
2019-05-10T11:05:09.281Z,15.90
2019-05-10T11:07:41.498Z,15.90
2019-05-10T11:10:17.922Z,15.90
2019-05-10T11:12:41.073Z,15.80
2019-05-10T11:15:11.197Z,15.80
2019-05-10T11:17:40.781Z,15.80
2019-05-10T11:20:11.570Z,15.80
2019-05-10T11:22:41.922Z,15.80
2019-05-10T11:25:12.944Z,15.80
2019-05-10T11:27:41.614Z,15.70
2019-05-10T11:30:12.081Z,15.70
2019-05-10T11:32:41.792Z,15.70
2019-05-10T11:35:11.831Z,15.70
2019-05-10T11:37:45.126Z,15.80
2019-05-10T11:40:12.603Z,15.80
2019-05-10T11:42:45.411Z,15.70
2019-05-10T11:45:11.680Z,15.80
2019-05-10T11:47:40.888Z,15.80
2019-05-10T11:50:10.664Z,15.80
2019-05-10T11:52:40.743Z,15.80
2019-05-10T11:55:11.474Z,15.80
2019-05-10T11:57:43.827Z,15.80
2019-05-10T12:03:01.763Z,15.90
2019-05-10T12:05:19.876Z,15.90
2019-05-10T12:07:46.135Z,16.10
2019-05-10T12:10:21.009Z,16.20
2019-05-10T12:13:01.634Z,16.50
2019-05-10T12:15:15.882Z,16.60
2019-05-10T12:17:47.650Z,16.70
2019-05-10T12:20:16.829Z,16.80
2019-05-10T12:22:47.676Z,16.90
2019-05-10T12:25:36.079Z,17.00
2019-05-10T12:26:03.775Z,15.80
2019-05-10T12:27:49.171Z,17.20
2019-05-10T12:30:17.066Z,17.30
2019-05-10T12:32:55.821Z,17.40
2019-05-10T12:35:16.037Z,17.50
2019-05-10T12:37:48.885Z,17.50
2019-05-10T12:40:15.496Z,17.60
2019-05-10T12:42:47.130Z,17.50
2019-05-10T12:45:16.633Z,17.50
2019-05-10T12:47:46.099Z,17.40
2019-05-10T12:50:15.409Z,17.50
2019-05-10T12:52:53.533Z,17.50
2019-05-10T12:55:14.694Z,17.50
2019-05-10T12:57:43.698Z,17.70
2019-05-10T13:00:15.823Z,17.80
2019-05-10T13:02:51.465Z,17.90
2019-05-10T13:05:16.065Z,18.10
2019-05-10T13:07:44.889Z,18.20
2019-05-10T13:10:13.762Z,18.30
2019-05-10T13:12:46.899Z,18.40
2019-05-10T13:15:13.543Z,18.50
2019-05-10T13:17:50.646Z,18.30
2019-05-10T13:20:13.450Z,18.30
2019-05-10T13:22:42.030Z,18.30
2019-05-10T13:25:12.611Z,18.40
2019-05-10T13:27:41.311Z,18.50
2019-05-10T13:30:11.149Z,18.50
2019-05-10T13:32:39.841Z,18.60
2019-05-10T13:35:09.657Z,18.60
2019-05-10T13:37:38.229Z,18.70
2019-05-10T13:40:08.857Z,18.60
2019-05-10T13:42:43.152Z,18.50
2019-05-10T13:45:08.045Z,18.30
2019-05-10T13:47:37.529Z,18.20
2019-05-10T13:50:08.145Z,18.10
2019-05-10T13:52:40.870Z,18.00
2019-05-10T13:55:08.325Z,18.10
2019-05-10T13:57:36.913Z,18.30
2019-05-10T14:00:10.604Z,18.40
2019-05-10T14:02:39.214Z,18.70
2019-05-10T14:05:11.988Z,18.80
2019-05-10T14:07:38.421Z,18.80
2019-05-10T14:10:07.775Z,18.60
2019-05-10T14:12:36.604Z,18.30
2019-05-10T14:15:12.819Z,17.90
2019-05-10T14:17:37.797Z,17.80
2019-05-10T14:20:19.526Z,17.80
2019-05-10T14:22:39.746Z,17.70
2019-05-10T14:25:09.439Z,17.60
2019-05-10T14:27:38.616Z,17.50
2019-05-10T14:30:13.410Z,17.50
2019-05-10T14:32:38.985Z,17.30
2019-05-10T14:35:07.967Z,17.30
2019-05-10T14:37:36.577Z,17.20
2019-05-10T14:40:06.768Z,17.20
2019-05-10T14:42:36.321Z,17.20
2019-05-10T14:45:06.315Z,17.10
2019-05-10T14:47:46.619Z,17.10
2019-05-10T14:50:06.629Z,17.00
2019-05-10T14:52:35.211Z,17.00
2019-05-10T14:55:05.976Z,16.90
2019-05-10T14:57:36.487Z,16.80
2019-05-10T15:00:07.307Z,16.70
2019-05-10T15:02:35.925Z,16.60
2019-05-10T15:05:08.882Z,16.50
2019-05-10T15:07:36.559Z,16.50
2019-05-10T15:10:06.054Z,16.50
2019-05-10T15:12:34.620Z,16.50
2019-05-10T15:15:03.681Z,16.50
2019-05-10T15:17:35.445Z,16.40
2019-05-10T15:20:06.539Z,16.50
2019-05-10T15:22:35.245Z,16.40
2019-05-10T15:25:04.934Z,16.40
2019-05-10T15:27:34.032Z,16.40
2019-05-10T15:30:05.351Z,16.40
2019-05-10T15:32:33.045Z,16.40
2019-05-10T15:35:06.971Z,16.40
2019-05-10T15:37:33.661Z,16.40
2019-05-10T15:40:05.959Z,16.50
2019-05-10T15:42:36.149Z,16.50
2019-05-10T15:45:05.329Z,16.50
2019-05-10T15:47:34.177Z,16.50
2019-05-10T15:50:02.767Z,16.50
2019-05-10T15:52:31.453Z,16.40
2019-05-10T15:55:00.014Z,16.30
2019-05-10T15:57:32.329Z,16.30
2019-05-10T15:59:59.189Z,16.30
2019-05-10T16:02:30.835Z,16.30
2019-05-10T16:04:59.490Z,16.30
2019-05-10T16:07:28.177Z,16.30
2019-05-10T16:09:56.825Z,16.20
2019-05-10T16:12:25.408Z,16.20
2019-05-10T16:14:54.079Z,16.20
2019-05-10T16:17:23.932Z,16.10
2019-05-10T16:19:59.763Z,16.10
2019-05-10T16:22:25.191Z,16.00
2019-05-10T16:24:53.248Z,16.00
2019-05-10T16:27:22.050Z,15.90
2019-05-10T16:29:50.715Z,15.90
2019-05-10T16:32:19.285Z,15.90
2019-05-10T16:34:47.975Z,15.90
2019-05-10T16:37:16.634Z,15.90
2019-05-10T16:39:45.206Z,15.80
2019-05-10T16:42:13.816Z,15.80
2019-05-10T16:44:42.399Z,15.80
2019-05-10T16:47:11.982Z,15.80
2019-05-10T16:49:47.607Z,15.80
2019-05-10T16:52:13.899Z,15.70
2019-05-10T16:54:42.474Z,15.70
2019-05-10T16:57:11.147Z,15.70
2019-05-10T16:59:39.793Z,15.70
2019-05-10T17:02:14.363Z,15.70
2019-05-10T17:04:42.979Z,15.70
2019-05-10T17:07:12.791Z,15.70
2019-05-10T17:09:41.845Z,15.70
2019-05-10T17:12:10.461Z,15.60
2019-05-10T17:14:39.084Z,15.60
2019-05-10T17:17:07.734Z,15.50
2019-05-10T17:19:37.374Z,15.50
2019-05-10T17:22:06.009Z,15.50
2019-05-10T17:24:34.596Z,15.40
2019-05-10T17:27:03.282Z,15.40
2019-05-10T17:29:31.980Z,15.30
2019-05-10T17:32:00.571Z,15.30
2019-05-10T17:34:29.831Z,15.30
2019-05-10T17:36:59.803Z,15.20
2019-05-10T17:39:32.256Z,15.10
2019-05-10T17:42:03.262Z,15.10
2019-05-10T17:44:32.043Z,15.00
2019-05-10T17:47:01.003Z,15.00
2019-05-10T17:49:29.580Z,15.00
2019-05-10T17:51:59.107Z,14.90
2019-05-10T17:54:33.717Z,14.80
2019-05-10T17:57:05.348Z,14.80
2019-05-10T17:59:35.055Z,14.70
2019-05-10T18:02:03.767Z,14.70
2019-05-10T18:04:32.447Z,14.70
2019-05-10T18:07:01.020Z,14.60
2019-05-10T18:09:30.680Z,14.50
2019-05-10T18:11:59.313Z,14.50
2019-05-10T18:14:30.297Z,14.40
2019-05-10T18:16:59.112Z,14.30
2019-05-10T18:19:27.752Z,14.30
2019-05-10T18:22:00.884Z,14.20
2019-05-10T18:24:30.108Z,14.10
2019-05-10T18:26:57.094Z,14.10
2019-05-10T18:29:25.666Z,14.10
2019-05-10T18:31:58.053Z,14.00
2019-05-10T18:34:26.591Z,14.00
2019-05-10T18:36:55.676Z,13.90
2019-05-10T18:39:24.836Z,13.90
2019-05-10T18:41:54.444Z,13.80
2019-05-10T18:44:23.158Z,13.80
2019-05-10T18:46:51.732Z,13.70
2019-05-10T18:49:20.347Z,13.70
2019-05-10T18:51:48.908Z,13.60
2019-05-10T18:54:17.488Z,13.50
2019-05-10T18:56:47.501Z,13.50
2019-05-10T18:59:16.446Z,13.40
2019-05-10T19:01:45.079Z,13.40
2019-05-10T19:04:14.578Z,13.40
2019-05-10T19:06:49.326Z,13.30
2019-05-10T19:09:14.206Z,13.30
2019-05-10T19:11:43.210Z,13.30
2019-05-10T19:14:12.958Z,13.20
2019-05-10T19:16:41.635Z,13.20
2019-05-10T19:19:10.180Z,13.20
2019-05-10T19:21:38.832Z,13.10
2019-05-10T19:24:08.796Z,13.10
2019-05-10T19:26:46.760Z,13.10
2019-05-10T19:29:15.470Z,13.10
2019-05-10T19:31:44.210Z,13.00
2019-05-10T19:34:15.199Z,13.00
2019-05-10T19:36:43.120Z,13.00
2019-05-10T19:39:11.855Z,12.90
2019-05-10T19:41:40.412Z,12.90
2019-05-10T19:44:08.998Z,12.90
2019-05-10T19:46:39.703Z,12.90
2019-05-10T19:49:13.247Z,12.80
2019-05-10T19:51:42.274Z,12.80
2019-05-10T19:54:13.554Z,12.80
2019-05-10T19:56:39.708Z,12.70
2019-05-10T19:59:11.672Z,12.60
2019-05-10T20:01:38.621Z,12.60
2019-05-10T20:04:09.347Z,12.60
2019-05-10T20:06:39.021Z,12.60
2019-05-10T20:09:08.244Z,12.50
2019-05-10T20:11:39.624Z,12.50
2019-05-10T20:14:08.214Z,12.50
2019-05-10T20:16:51.487Z,12.50
2019-05-10T20:19:09.182Z,12.50
2019-05-10T20:21:37.714Z,12.50
2019-05-10T20:24:06.320Z,12.40
2019-05-10T20:26:34.990Z,12.40
2019-05-10T20:29:03.625Z,12.40
2019-05-10T20:31:33.516Z,12.40
2019-05-10T20:34:02.163Z,12.40
2019-05-10T20:36:30.729Z,12.40
2019-05-10T20:39:00.971Z,12.40
2019-05-10T20:41:29.760Z,12.40
2019-05-10T20:43:58.474Z,12.40
2019-05-10T20:46:27.090Z,12.40
2019-05-10T20:48:55.767Z,12.50
2019-05-10T20:51:24.360Z,12.60
2019-05-10T20:53:52.965Z,12.70
2019-05-10T20:56:21.908Z,12.80
2019-05-10T20:58:50.656Z,12.90
2019-05-10T21:01:19.264Z,13.00
2019-05-10T21:03:47.828Z,13.10
2019-05-10T21:06:16.453Z,13.10
2019-05-10T21:08:45.032Z,13.20
2019-05-10T21:11:13.645Z,13.20
2019-05-10T21:13:43.282Z,13.30
2019-05-10T21:16:11.943Z,13.30
2019-05-10T21:18:43.786Z,13.30
2019-05-10T21:21:12.415Z,13.30
2019-05-10T21:23:40.992Z,13.30
2019-05-10T21:26:09.596Z,13.30
2019-05-10T21:28:38.161Z,13.30
2019-05-10T21:31:06.823Z,13.30
2019-05-10T21:33:35.739Z,13.20
2019-05-10T21:36:04.427Z,13.20
2019-05-10T21:38:33.683Z,13.20
2019-05-10T21:41:02.547Z,13.20
2019-05-10T21:43:31.179Z,13.20
2019-05-10T21:46:00.096Z,13.20
2019-05-10T21:48:28.978Z,13.20
2019-05-10T21:50:57.645Z,13.10
2019-05-10T21:53:26.211Z,13.00
2019-05-10T21:55:55.759Z,12.90
2019-05-10T21:58:24.364Z,12.90
2019-05-10T22:00:53.194Z,12.80
2019-05-10T22:03:21.979Z,12.80
2019-05-10T22:05:51.476Z,12.70
2019-05-10T22:08:21.113Z,12.60
2019-05-10T22:10:49.640Z,12.50
2019-05-10T22:13:18.233Z,12.50
2019-05-10T22:15:46.897Z,12.50
2019-05-10T22:18:15.555Z,12.40
2019-05-10T22:20:44.187Z,12.30
2019-05-10T22:23:12.812Z,12.30
2019-05-10T22:25:41.311Z,12.30
2019-05-10T22:28:09.932Z,12.20
2019-05-10T22:30:38.674Z,12.20
2019-05-10T22:33:08.250Z,12.20
2019-05-10T22:35:37.269Z,12.10
2019-05-10T22:38:05.918Z,12.10
2019-05-10T22:40:34.487Z,12.10
2019-05-10T22:43:03.159Z,12.10
2019-05-10T22:45:31.748Z,12.10
2019-05-10T22:48:00.349Z,12.00
2019-05-10T22:50:29.065Z,12.00
2019-05-10T22:53:00.583Z,12.00
2019-05-10T22:55:30.288Z,12.10
2019-05-10T22:58:05.635Z,12.10
2019-05-10T23:00:34.471Z,12.10
2019-05-10T23:03:05.097Z,12.10
2019-05-10T23:05:33.735Z,12.20
2019-05-10T23:08:04.086Z,12.20
2019-05-10T23:10:32.780Z,12.20
2019-05-10T23:13:05.445Z,12.30
2019-05-10T23:15:34.064Z,12.30
2019-05-10T23:18:02.640Z,12.40
2019-05-10T23:20:31.223Z,12.50
2019-05-10T23:22:59.848Z,12.50
2019-05-10T23:25:28.497Z,12.60
2019-05-10T23:27:57.172Z,12.70
2019-05-10T23:30:27.093Z,12.70
2019-05-10T23:32:56.822Z,12.80
2019-05-10T23:35:25.468Z,12.80
2019-05-10T23:37:55.070Z,12.80
2019-05-10T23:40:23.587Z,12.90
2019-05-10T23:42:53.222Z,12.90
2019-05-10T23:45:21.858Z,12.90
2019-05-10T23:47:50.534Z,13.00
2019-05-10T23:50:20.174Z,13.00
2019-05-10T23:52:49.748Z,13.00
2019-05-10T23:55:18.360Z,13.00
2019-05-10T23:57:46.944Z,13.10
